createdAt,value
2017-10-23T00:00:12.697Z,100367.96
2017-10-23T00:02:39.494Z,100361.50
2017-10-23T00:05:06.275Z,100354.08
2017-10-23T00:07:33.061Z,100340.96
2017-10-23T00:09:59.890Z,100339.26
2017-10-23T00:12:29.234Z,100334.95
2017-10-23T00:14:56.911Z,100338.94
2017-10-23T00:17:23.749Z,100329.81
2017-10-23T00:19:51.386Z,100328.81
2017-10-23T00:22:18.193Z,100324.50
2017-10-23T00:24:45.009Z,100310.59
2017-10-23T00:27:11.831Z,100300.59
2017-10-23T00:29:38.662Z,100305.76
2017-10-23T00:32:05.539Z,100313.39
2017-10-23T00:34:34.223Z,100300.41
2017-10-23T00:37:01.029Z,100297.05
2017-10-23T00:39:27.838Z,100291.98
2017-10-23T00:41:57.093Z,100288.70
2017-10-23T00:44:24.056Z,100296.88
2017-10-23T00:46:50.862Z,100298.80
2017-10-23T00:49:17.648Z,100304.95
2017-10-23T00:51:44.429Z,100297.32
2017-10-23T00:54:11.244Z,100289.07
2017-10-23T00:56:38.176Z,100290.68
2017-10-23T00:59:05.107Z,100279.53
2017-10-23T01:01:32.007Z,100279.70
2017-10-23T01:03:58.831Z,100280.07
2017-10-23T01:06:25.618Z,100282.13
2017-10-23T01:08:52.436Z,100283.10
2017-10-23T01:11:19.243Z,100281.23
2017-10-23T01:13:46.045Z,100277.59
2017-10-23T01:16:12.881Z,100272.14
2017-10-23T01:18:45.826Z,100268.48
2017-10-23T01:21:12.641Z,100264.05
2017-10-23T01:23:39.533Z,100266.69
2017-10-23T01:26:06.409Z,100265.08
2017-10-23T01:28:33.330Z,100262.48
2017-10-23T01:31:00.229Z,100268.01
2017-10-23T01:33:27.445Z,100265.15
2017-10-23T01:35:54.233Z,100242.84
2017-10-23T01:38:21.134Z,100255.25
2017-10-23T01:40:48.040Z,100256.80
2017-10-23T01:43:14.866Z,100257.16
2017-10-23T01:45:41.770Z,100251.63
2017-10-23T01:48:08.734Z,100238.88
2017-10-23T01:50:35.563Z,100246.14
2017-10-23T01:53:03.223Z,100241.84
2017-10-23T01:55:30.115Z,100239.27
2017-10-23T01:57:56.914Z,100240.34
2017-10-23T02:00:23.759Z,100233.51
2017-10-23T02:02:55.113Z,100238.64
2017-10-23T02:05:21.922Z,100242.26
2017-10-23T02:07:48.804Z,100240.25
2017-10-23T02:10:18.304Z,100227.37
2017-10-23T02:12:45.143Z,100223.17
2017-10-23T02:15:12.024Z,100217.93
2017-10-23T02:17:39.761Z,100213.45
2017-10-23T02:20:06.579Z,100208.78
2017-10-23T02:22:33.373Z,100210.72
2017-10-23T02:25:00.338Z,100209.66
2017-10-23T02:27:27.162Z,100216.33
2017-10-23T02:29:53.962Z,100221.02
2017-10-23T02:34:52.207Z,100218.48
2017-10-23T02:37:19.037Z,100213.27
2017-10-23T02:39:45.862Z,100212.00
2017-10-23T02:42:12.666Z,100210.92
2017-10-23T02:44:39.461Z,100217.26
2017-10-23T02:47:07.186Z,100215.84
2017-10-23T02:49:34.005Z,100216.23
2017-10-23T02:52:00.855Z,100215.85
2017-10-23T02:54:28.659Z,100205.02
2017-10-23T02:56:55.461Z,100208.66
2017-10-23T02:59:22.257Z,100201.50
2017-10-23T03:01:49.091Z,100194.72
2017-10-23T03:04:15.940Z,100193.81
2017-10-23T03:06:43.750Z,100188.06
2017-10-23T03:09:13.200Z,100180.32
2017-10-23T03:11:40.124Z,100179.14
2017-10-23T03:14:07.088Z,100170.92
2017-10-23T03:16:34.026Z,100164.66
2017-10-23T03:19:00.903Z,100160.92
2017-10-23T03:21:27.796Z,100153.86
2017-10-23T03:23:57.309Z,100153.22
2017-10-23T03:26:24.238Z,100153.48
2017-10-23T03:28:51.203Z,100152.52
2017-10-23T03:31:18.477Z,100149.66
2017-10-23T03:33:45.447Z,100156.81
2017-10-23T03:36:12.712Z,100156.45
2017-10-23T03:38:40.541Z,100151.69
2017-10-23T03:41:07.434Z,100142.27
2017-10-23T03:43:42.047Z,100145.36
2017-10-23T03:46:09.047Z,100148.38
2017-10-23T03:48:36.060Z,100145.98
2017-10-23T03:51:05.443Z,100150.48
2017-10-23T03:53:32.369Z,100142.25
2017-10-23T03:55:59.333Z,100145.47
2017-10-23T03:58:26.621Z,100139.78
2017-10-23T04:00:53.666Z,100136.52
2017-10-23T04:03:20.612Z,100140.12
2017-10-23T04:05:47.678Z,100132.34
2017-10-23T04:08:14.763Z,100138.95
2017-10-23T04:10:41.751Z,100133.03
2017-10-23T04:13:08.821Z,100133.45
2017-10-23T04:15:35.721Z,100125.41
2017-10-23T04:18:02.740Z,100120.19
2017-10-23T04:20:30.520Z,100107.93
2017-10-23T04:22:57.533Z,100101.48
2017-10-23T04:25:24.612Z,100104.51
2017-10-23T04:27:51.926Z,100103.16
2017-10-23T04:30:18.854Z,100099.53
2017-10-23T04:32:45.725Z,100095.55
2017-10-23T04:35:12.601Z,100103.09
2017-10-23T04:37:39.435Z,100108.11
2017-10-23T04:40:06.260Z,100100.34
2017-10-23T04:42:35.659Z,100097.73
2017-10-23T04:45:02.549Z,100104.20
2017-10-23T04:47:29.404Z,100101.09
2017-10-23T04:49:56.361Z,100091.23
2017-10-23T04:52:23.295Z,100086.23
2017-10-23T04:54:51.266Z,100071.00
2017-10-23T04:57:22.092Z,100076.70
2017-10-23T04:59:48.893Z,100080.59
2017-10-23T05:02:15.713Z,100066.30
2017-10-23T05:04:43.688Z,100069.33
2017-10-23T05:07:10.614Z,100072.80
2017-10-23T05:09:37.558Z,100063.78
2017-10-23T05:12:08.043Z,100066.08
2017-10-23T05:14:34.988Z,100054.56
2017-10-23T05:17:01.869Z,100061.45
2017-10-23T05:19:29.844Z,100058.19
2017-10-23T05:21:56.743Z,100063.23
2017-10-23T05:24:23.621Z,100065.38
2017-10-23T05:26:51.329Z,100030.84
2017-10-23T05:29:18.362Z,100063.67
2017-10-23T05:31:45.233Z,100067.08
2017-10-23T05:34:15.577Z,100067.60
2017-10-23T05:36:42.472Z,100065.08
2017-10-23T05:39:09.371Z,100060.73
2017-10-23T05:41:36.337Z,100068.39
2017-10-23T05:44:03.504Z,100059.34
2017-10-23T05:46:30.362Z,100058.63
2017-10-23T05:48:58.467Z,100057.28
2017-10-23T05:51:25.321Z,100054.20
2017-10-23T05:53:52.160Z,100070.72
2017-10-23T05:56:23.799Z,100075.91
2017-10-23T05:58:50.627Z,100079.44
2017-10-23T06:01:17.475Z,100074.55
2017-10-23T06:03:45.115Z,100074.05
2017-10-23T06:06:12.026Z,100071.13
2017-10-23T06:08:38.841Z,100066.78
2017-10-23T06:11:07.470Z,100064.09
2017-10-23T06:13:34.454Z,100060.30
2017-10-23T06:16:01.324Z,100048.70
2017-10-23T06:18:28.574Z,100057.16
2017-10-23T06:20:55.546Z,100045.30
2017-10-23T06:23:22.513Z,100051.84
2017-10-23T06:25:51.360Z,100037.42
2017-10-23T06:28:18.319Z,100039.05
2017-10-23T06:30:45.229Z,100037.98
2017-10-23T06:33:12.264Z,100035.44
2017-10-23T06:35:39.195Z,100029.45
2017-10-23T06:38:06.102Z,100026.67
2017-10-23T06:40:33.053Z,100025.62
2017-10-23T06:43:03.056Z,100019.56
2017-10-23T06:45:29.939Z,100016.21
2017-10-23T06:47:56.931Z,100010.58
2017-10-23T06:50:23.866Z,100015.78
2017-10-23T06:52:50.743Z,100014.92
2017-10-23T06:55:17.681Z,100013.94
2017-10-23T06:57:47.838Z,100007.25
2017-10-23T07:00:14.762Z,100001.35
2017-10-23T07:02:41.742Z,100002.30
2017-10-23T07:05:08.725Z,100008.36
2017-10-23T07:07:35.638Z,100003.30
2017-10-23T07:10:02.661Z,100000.25
2017-10-23T07:12:29.598Z,99992.32
2017-10-23T07:14:56.502Z,99987.84
2017-10-23T07:17:23.446Z,99985.84
2017-10-23T07:19:50.361Z,99983.56
2017-10-23T07:22:18.142Z,99992.08
2017-10-23T07:24:45.075Z,99980.64
2017-10-23T07:27:11.937Z,99982.06
2017-10-23T07:29:38.820Z,99978.50
2017-10-23T07:32:05.715Z,99969.52
2017-10-23T07:34:32.539Z,99961.73
2017-10-23T15:23:28.467Z,99589.78
2017-10-23T15:26:04.453Z,99601.91
2017-10-23T15:31:38.280Z,99602.81
2017-10-23T15:34:13.650Z,99596.74
2017-10-23T15:36:48.742Z,99592.65
2017-10-23T15:39:28.519Z,99588.41
2017-10-23T15:42:03.269Z,99591.88
2017-10-23T15:44:39.994Z,99594.94
2017-10-23T15:47:14.872Z,99596.80
2017-10-23T15:49:50.488Z,99604.20
2017-10-23T15:52:27.279Z,99590.77
2017-10-23T15:55:03.944Z,99595.38
2017-10-23T15:57:38.867Z,99589.44
2017-10-23T16:00:14.587Z,99576.63
2017-10-23T16:02:51.552Z,99579.83
2017-10-23T16:05:30.239Z,99577.48
2017-10-23T16:08:06.080Z,99585.09
2017-10-23T16:10:44.200Z,99586.19
2017-10-23T16:13:21.516Z,99587.56
2017-10-23T16:15:57.215Z,99579.02
2017-10-23T16:18:33.318Z,99576.88
2017-10-23T16:21:09.844Z,99574.09
2017-10-23T16:23:45.146Z,99573.22
2017-10-23T16:26:23.796Z,99569.19
2017-10-23T16:28:58.696Z,99568.08
2017-10-23T16:31:33.371Z,99571.52
2017-10-23T16:34:07.930Z,99575.69
2017-10-23T16:36:44.246Z,99572.89
2017-10-23T16:39:19.466Z,99568.20
2017-10-23T16:41:56.600Z,99571.05
2017-10-23T16:44:31.625Z,99568.09
2017-10-23T16:47:06.759Z,99566.59
2017-10-23T16:49:42.066Z,99565.09
2017-10-23T16:52:17.614Z,99563.62
2017-10-23T16:54:53.364Z,99556.59
2017-10-23T16:57:29.146Z,99561.64
2017-10-23T17:00:04.186Z,99556.81
2017-10-23T17:02:39.402Z,99558.23
2017-10-23T17:05:06.215Z,99552.72
2017-10-23T17:07:45.874Z,99546.22
2017-10-23T17:10:21.241Z,99547.09
2017-10-23T17:12:57.784Z,99546.11
2017-10-23T17:15:32.803Z,99542.67
2017-10-23T17:18:08.495Z,99538.83
2017-10-23T17:20:45.166Z,99535.52
2017-10-23T17:23:12.116Z,99537.48
2017-10-23T17:25:47.075Z,99530.50
2017-10-23T17:28:24.065Z,99534.95
2017-10-23T17:30:59.390Z,99534.83
2017-10-23T17:33:36.044Z,99533.25
2017-10-23T17:36:10.641Z,99526.01
2017-10-23T17:38:45.404Z,99534.70
2017-10-23T17:41:22.662Z,99533.64
2017-10-23T17:43:57.215Z,99536.25
2017-10-23T17:46:33.677Z,99532.48
2017-10-23T17:49:11.620Z,99534.13
2017-10-23T17:51:46.603Z,99522.50
2017-10-23T17:54:22.937Z,99519.94
2017-10-23T17:56:57.957Z,99519.97
2017-10-23T17:59:35.324Z,99523.59
2017-10-23T18:02:10.253Z,99520.65
2017-10-23T18:04:47.426Z,99526.66
2017-10-23T18:07:22.767Z,99517.62
2017-10-23T18:09:58.250Z,99515.63
2017-10-23T18:12:32.825Z,99515.55
2017-10-23T18:15:09.084Z,99524.70
2017-10-23T18:17:44.007Z,99519.25
2017-10-23T18:20:18.707Z,99529.34
2017-10-23T18:22:53.369Z,99519.48
2017-10-23T18:25:29.989Z,99524.43
2017-10-23T18:28:04.464Z,99521.97
2017-10-23T18:30:41.345Z,99523.52
2017-10-23T18:33:20.154Z,99527.53
2017-10-23T18:35:47.160Z,99526.62
2017-10-23T18:38:25.178Z,99524.88
2017-10-23T18:41:02.238Z,99522.92
2017-10-23T18:43:37.549Z,99519.98
2017-10-23T18:46:05.308Z,99518.05
2017-10-23T18:48:32.088Z,99516.27
2017-10-23T18:51:10.504Z,99514.76
2017-10-23T18:53:44.988Z,99515.86
2017-10-23T18:56:21.122Z,99510.11
2017-10-23T18:59:01.108Z,99512.45
2017-10-23T19:01:41.746Z,99507.38
2017-10-23T19:04:09.533Z,99506.33
2017-10-23T19:06:50.580Z,99506.13
2017-10-23T19:09:26.320Z,99504.41
2017-10-23T19:12:00.989Z,99508.70
2017-10-23T19:14:31.618Z,99506.67
2017-10-23T19:17:09.950Z,99495.59
2017-10-23T19:19:44.701Z,99501.86
2017-10-23T19:22:11.482Z,99500.42
2017-10-23T19:24:38.269Z,99497.92
2017-10-23T19:27:27.645Z,99495.32
2017-10-23T19:30:02.361Z,99497.85
2017-10-23T19:32:38.244Z,99496.27
2017-10-23T19:35:15.409Z,99492.22
2017-10-23T19:37:50.405Z,99489.13
2017-10-23T19:40:25.597Z,99485.34
2017-10-23T19:43:06.440Z,99487.80
2017-10-23T19:45:40.963Z,99483.48
2017-10-23T19:48:21.651Z,99480.00
2017-10-23T19:50:59.034Z,99477.20
2017-10-23T19:53:40.628Z,99473.56
2017-10-23T19:56:24.425Z,99473.98
2017-10-23T19:59:05.469Z,99469.75
2017-10-23T20:01:42.605Z,99473.04
2017-10-23T20:04:23.364Z,99472.44
2017-10-23T20:07:03.733Z,99469.00
2017-10-23T20:09:40.912Z,99476.14
2017-10-23T20:12:16.283Z,99470.25
2017-10-23T20:14:57.173Z,99471.95
2017-10-23T20:17:39.092Z,99466.01
2017-10-23T20:20:14.675Z,99468.20
2017-10-23T20:22:51.326Z,99463.31
2017-10-23T20:25:26.595Z,99455.88
2017-10-23T20:28:01.189Z,99453.88
2017-10-23T20:30:37.974Z,99457.39
2017-10-23T20:33:18.526Z,99462.69
2017-10-23T20:35:53.429Z,99460.14
2017-10-23T20:38:34.605Z,99454.88
2017-10-23T20:41:10.977Z,99455.98
2017-10-23T20:43:45.703Z,99445.88
2017-10-23T20:46:29.512Z,99449.20
2017-10-23T20:49:10.721Z,99445.95
2017-10-23T20:51:48.944Z,99446.52
2017-10-23T20:54:25.552Z,99442.95
2017-10-23T20:57:03.821Z,99439.31
2017-10-23T20:59:40.718Z,99436.71
2017-10-23T21:02:23.698Z,99444.91
2017-10-23T21:04:59.664Z,99445.23
2017-10-23T21:07:37.005Z,99437.48
2017-10-23T21:10:20.377Z,99437.91
2017-10-23T21:12:56.596Z,99435.23
2017-10-23T21:15:41.451Z,99431.69
2017-10-23T21:18:28.105Z,99423.87
2017-10-23T21:24:02.136Z,99423.55
2017-10-23T21:26:37.301Z,99422.65
2017-10-23T21:29:28.894Z,99421.86
2017-10-23T21:32:19.688Z,99407.61
2017-10-23T21:35:04.788Z,99408.09
2017-10-23T21:37:40.499Z,99405.67
2017-10-23T21:40:18.020Z,99396.75
2017-10-23T21:43:01.625Z,99403.10
2017-10-23T21:45:44.814Z,99399.70
2017-10-23T21:54:03.092Z,99398.50
2017-10-23T21:56:48.139Z,99392.15
2017-10-23T21:59:22.902Z,99390.63
2017-10-23T22:02:05.123Z,99381.67
2017-10-23T22:04:39.781Z,99381.55
2017-10-23T22:10:25.782Z,99377.88
2017-10-23T22:13:05.779Z,99377.81
2017-10-23T22:15:48.173Z,99374.19
2017-10-23T22:18:31.807Z,99369.15
2017-10-23T22:24:00.201Z,99363.20
2017-10-23T22:26:37.482Z,99356.70
2017-10-23T22:29:19.617Z,99356.03
2017-10-23T22:32:00.559Z,99355.48
2017-10-23T22:34:44.161Z,99347.84
2017-10-23T22:37:19.998Z,99345.93
2017-10-23T22:39:58.547Z,99338.63
2017-10-23T22:42:39.036Z,99330.37
2017-10-23T22:45:13.851Z,99341.99
2017-10-23T22:47:56.085Z,99333.87
2017-10-23T22:50:36.624Z,99334.11
2017-10-23T22:53:16.510Z,99335.73
2017-10-23T22:55:56.794Z,99339.77
2017-10-23T22:58:34.115Z,99337.98
2017-10-23T23:01:16.625Z,99324.99
2017-10-23T23:03:51.610Z,99330.63
2017-10-23T23:06:28.751Z,99329.84
2017-10-23T23:09:04.041Z,99323.98
2017-10-23T23:11:40.575Z,99324.16
2017-10-23T23:14:15.198Z,99325.59
2017-10-23T23:16:50.775Z,99327.70
2017-10-23T23:19:26.310Z,99322.00
2017-10-23T23:21:53.038Z,99322.34
2017-10-23T23:24:27.738Z,99322.84
2017-10-23T23:27:05.313Z,99315.21
2017-10-23T23:29:39.944Z,99310.24
2017-10-23T23:32:15.012Z,99305.80
2017-10-23T23:34:51.767Z,99309.45
2017-10-23T23:37:31.258Z,99309.41
2017-10-23T23:40:11.053Z,99309.11
2017-10-23T23:45:38.546Z,99306.58
2017-10-23T23:48:14.893Z,99295.51
2017-10-23T23:50:55.352Z,99303.81
2017-10-23T23:53:37.143Z,99298.31
2017-10-23T23:56:11.897Z,99300.55
2017-10-23T23:58:51.673Z,99292.34
